Time;durP1;ratioP1;P1;durP2;ratioP2;P2;SDS_P1;SDS_P2;PMS_P1;PMS_P2;Temp;Humidity;BMP_temperature;BMP_pressure;BME280_temperature;BME280_humidity;BME280_pressure;Samples;Min_cycle;Max_cycle;Signal;HPM_P1;HPM_P2
2022/09/19 00:01:45;;;;;;;11.60;2.45;;;;;;;17.15;57.23;101689.97;5053000;28;20053;-76
2022/09/19 00:04:22;;;;;;;14.43;2.17;;;;;;;16.90;58.77;101698.53;5070550;28;20098;-74
2022/09/19 00:06:49;;;;;;;17.77;2.30;;;;;;;17.14;57.83;101700.00;5070636;28;20129;-72
2022/09/19 00:09:18;;;;;;;25.25;2.40;;;;;;;17.57;56.77;101688.47;5070975;28;20063;-73
2022/09/19 00:11:46;;;;;;;14.25;1.95;;;;;;;16.92;58.65;101695.56;5053548;28;20078;-73
2022/09/19 00:14:14;;;;;;;20.08;2.55;;;;;;;17.32;58.24;101702.47;5070575;28;20427;-74
2022/09/19 00:16:44;;;;;;;10.00;2.47;;;;;;;16.96;58.79;101702.16;5070959;28;20115;-75
2022/09/19 00:19:11;;;;;;;13.80;1.97;;;;;;;17.04;58.64;101704.47;5070646;28;20024;-75
2022/09/19 00:21:39;;;;;;;16.58;2.88;;;;;;;17.52;56.82;101702.78;5074456;28;20473;-74
2022/09/19 00:26:50;;;;;;;11.55;1.83;;;;;;;17.27;58.10;101704.28;5074675;28;20047;-76
2022/09/19 00:29:17;;;;;;;13.05;2.78;;;;;;;17.32;58.17;101699.75;5074240;28;20029;-75
2022/09/19 00:31:44;;;;;;;14.45;2.20;;;;;;;17.45;57.93;101710.25;5074170;28;20075;-75
2022/09/19 00:34:14;;;;;;;18.05;2.45;;;;;;;17.64;57.29;101715.44;5074300;28;20146;-75
2022/09/19 00:36:41;;;;;;;11.60;1.73;;;;;;;17.68;57.00;101716.59;5074857;28;20361;-76
2022/09/19 00:39:08;;;;;;;20.35;2.33;;;;;;;17.35;57.99;101722.88;5074004;28;20039;-76
2022/09/19 00:41:34;;;;;;;12.13;1.85;;;;;;;17.79;57.16;101712.97;5074096;28;20127;-75
2022/09/19 00:44:05;;;;;;;17.05;2.33;;;;;;;17.51;57.14;101703.06;5074137;28;20369;-75
2022/09/19 00:46:33;;;;;;;19.95;2.75;;;;;;;17.81;56.88;101716.25;5074526;28;20285;-75
2022/09/19 00:49:05;;;;;;;14.25;2.42;;;;;;;17.97;56.35;101708.03;5073867;28;20037;-75
2022/09/19 00:52:03;;;;;;;13.07;1.80;;;;;;;17.82;56.32;101704.28;5073715;28;20032;-75
2022/09/19 00:54:33;;;;;;;18.92;1.50;;;;;;;17.33;58.87;101714.97;4991330;28;20065;-75
2022/09/19 00:57:02;;;;;;;16.92;2.15;;;;;;;17.83;57.18;101714.06;4991836;28;20482;-74
2022/09/19 00:59:33;;;;;;;15.07;2.95;;;;;;;17.45;58.39;101709.44;4991938;28;20150;-75
2022/09/19 01:01:59;;;;;;;10.07;1.42;;;;;;;17.42;58.29;101710.75;4991567;28;20121;-77
2022/09/19 01:04:32;;;;;;;12.52;2.53;;;;;;;17.25;58.55;101711.84;4992220;28;20125;-75
2022/09/19 01:07:14;;;;;;;10.40;2.15;;;;;;;16.92;60.07;101712.69;4991473;28;20046;-75
2022/09/19 01:10:03;;;;;;;13.93;1.80;;;;;;;17.38;58.42;101711.50;4994451;28;20537;-76
2022/09/19 01:12:54;;;;;;;14.38;2.45;;;;;;;17.34;58.30;101722.06;4991342;28;20057;-74
2022/09/19 01:15:22;;;;;;;14.75;1.60;;;;;;;17.76;57.53;101722.44;4988498;28;20133;-74
2022/09/19 01:17:48;;;;;;;12.73;2.40;;;;;;;17.38;58.11;101722.38;4991948;28;20517;-75
2022/09/19 01:20:32;;;;;;;17.65;1.75;;;;;;;17.15;59.58;101726.09;4991262;28;20052;-75
2022/09/19 01:23:21;;;;;;;12.00;1.90;;;;;;;17.30;59.15;101729.03;4991265;28;20042;-75
2022/09/19 01:26:18;;;;;;;22.95;2.30;;;;;;;17.43;58.96;101727.91;4991996;28;20042;-75
2022/09/19 01:28:55;;;;;;;15.73;2.15;;;;;;;17.69;58.09;101721.78;5008978;28;20046;-75
2022/09/19 01:31:27;;;;;;;23.55;3.30;;;;;;;17.53;58.70;101733.53;5074935;28;20073;-74
2022/09/19 01:34:04;;;;;;;13.90;1.77;;;;;;;17.40;58.65;101734.66;5075235;28;20037;-75
2022/09/19 01:36:35;;;;;;;23.23;2.22;;;;;;;17.44;58.26;101732.25;5073122;28;20037;-75
2022/09/19 01:39:04;;;;;;;19.25;2.60;;;;;;;17.73;57.88;101730.28;5073087;28;20040;-76
2022/09/19 01:41:30;;;;;;;8.90;2.50;;;;;;;17.25;58.95;101733.59;5072519;28;20047;-74
2022/09/19 01:44:02;;;;;;;24.20;2.15;;;;;;;17.61;57.90;101743.94;5071847;28;20464;-76
2022/09/19 01:46:45;;;;;;;18.17;2.78;;;;;;;17.71;58.19;101740.56;5072756;28;20529;-74
2022/09/19 01:49:21;;;;;;;23.00;3.13;;;;;;;18.07;56.79;101745.41;5072164;28;20082;-74
2022/09/19 01:51:58;;;;;;;21.05;2.38;;;;;;;17.87;57.07;101745.97;5066678;28;20036;-75
2022/09/19 01:54:36;;;;;;;12.93;1.90;;;;;;;17.70;58.00;101749.78;5067245;28;20047;-73
2022/09/19 01:57:29;;;;;;;14.57;2.78;;;;;;;18.03;57.51;101752.41;5072176;28;20036;-74
2022/09/19 02:00:11;;;;;;;18.33;2.35;;;;;;;17.64;57.78;101740.75;5072363;28;20045;-75
2022/09/19 02:02:53;;;;;;;18.35;2.50;;;;;;;17.97;57.58;101748.00;5071626;28;20039;-75
2022/09/19 02:05:41;;;;;;;6.35;1.00;;;;;;;17.83;57.67;101744.81;5072595;28;20048;-76
2022/09/19 02:08:21;;;;;;;14.95;1.60;;;;;;;17.95;57.47;101734.66;5067182;28;20020;-75
2022/09/19 02:10:54;;;;;;;16.38;2.15;;;;;;;18.17;56.96;101740.09;5073070;28;20537;-73
2022/09/19 02:13:24;;;;;;;13.88;2.28;;;;;;;18.01;57.20;101735.53;5072621;28;20055;-73
2022/09/19 02:15:55;;;;;;;14.43;2.90;;;;;;;17.97;57.25;101731.66;5072761;28;20032;-74
2022/09/19 02:18:35;;;;;;;20.05;2.88;;;;;;;17.84;57.83;101729.31;5071945;28;20044;-73
2022/09/19 02:21:07;;;;;;;11.98;1.73;;;;;;;17.76;57.60;101732.47;5072193;28;20044;-73
2022/09/19 02:23:47;;;;;;;19.30;2.38;;;;;;;17.12;60.30;101731.22;5072199;28;20112;-73
2022/09/19 02:26:16;;;;;;;15.20;2.08;;;;;;;17.72;58.42;101734.88;5072272;28;20032;-75
2022/09/19 02:28:44;;;;;;;20.48;2.20;;;;;;;17.95;57.35;101729.22;5073038;28;20027;-75
2022/09/19 02:31:12;;;;;;;12.32;1.95;;;;;;;17.78;57.76;101733.88;5069320;28;20512;-74
2022/09/19 02:33:39;;;;;;;12.68;1.98;;;;;;;17.70;58.21;101737.03;5068439;28;20047;-75
2022/09/19 02:36:16;;;;;;;15.73;1.95;;;;;;;17.52;59.12;101735.41;5071554;28;20048;-76
2022/09/19 02:39:11;;;;;;;10.68;2.22;;;;;;;17.40;59.15;101741.97;5066637;28;20384;-74
2022/09/19 02:41:49;;;;;;;18.98;1.92;;;;;;;17.84;57.72;101730.16;5071363;28;20064;-74
2022/09/19 02:44:24;;;;;;;16.23;2.17;;;;;;;17.62;58.30;101732.00;5071587;28;20033;-74
2022/09/19 02:46:54;;;;;;;14.35;2.80;;;;;;;17.56;58.31;101746.59;5072660;28;20115;-74
2022/09/19 02:49:36;;;;;;;12.35;3.47;;;;;;;17.81;58.02;101740.72;5071977;28;20095;-74
2022/09/19 02:52:08;;;;;;;17.05;2.88;;;;;;;18.04;57.11;101741.28;5071772;28;20570;-75
2022/09/19 02:54:38;;;;;;;11.82;1.60;;;;;;;17.71;58.11;101744.09;5064761;28;20040;-76
2022/09/19 02:57:08;;;;;;;9.13;1.75;;;;;;;17.40;58.55;101756.38;5065647;28;20029;-75
2022/09/19 02:59:39;;;;;;;11.55;1.88;;;;;;;17.94;57.48;101751.22;5065224;28;20102;-75
2022/09/19 03:02:16;;;;;;;;;;;;;;;17.74;57.45;101749.03;5070707;28;20032;-74
2022/09/19 03:04:47;;;;;;;13.82;2.63;;;;;;;17.79;57.40;101751.03;5071719;28;20002;-74
2022/09/19 03:07:18;;;;;;;10.60;1.55;;;;;;;17.54;58.41;101754.19;5071656;28;20035;-74
2022/09/19 03:09:57;;;;;;;20.30;2.80;;;;;;;17.86;57.74;101754.38;5071241;28;20087;-74
2022/09/19 03:12:36;;;;;;;16.08;2.17;;;;;;;18.12;56.65;101759.09;5071196;28;20043;-75
2022/09/19 03:15:05;;;;;;;15.85;3.67;;;;;;;18.18;56.87;101758.88;5075774;28;20046;-76
2022/09/19 03:17:37;;;;;;;13.75;2.20;;;;;;;18.69;55.14;101751.34;5053018;28;20454;-76
2022/09/19 03:20:03;;;;;;;22.05;3.03;;;;;;;18.62;55.08;101761.59;5065197;28;20093;-76
2022/09/19 03:22:29;;;;;;;15.10;2.55;;;;;;;18.62;54.96;101759.72;5057156;28;20040;-75
2022/09/19 03:24:54;;;;;;;13.35;2.15;;;;;;;18.73;54.54;101772.34;5091432;28;20036;-76
2022/09/19 03:27:19;;;;;;;19.33;2.95;;;;;;;18.66;54.23;101768.19;5091244;28;20036;-75
2022/09/19 03:29:45;;;;;;;17.77;1.98;;;;;;;18.68;54.36;101768.75;5091138;28;20047;-77
2022/09/19 03:32:10;;;;;;;23.25;3.05;;;;;;;18.36;55.42;101772.16;5087390;28;20051;-74
2022/09/19 03:34:37;;;;;;;14.57;2.88;;;;;;;18.57;54.60;101775.16;5091383;28;20035;-74
2022/09/19 03:37:03;;;;;;;7.35;1.10;;;;;;;18.50;55.27;101771.81;5090970;28;20454;-76
2022/09/19 03:39:28;;;;;;;11.02;2.08;;;;;;;18.69;54.33;101778.56;5091029;28;20032;-74
2022/09/19 03:41:54;;;;;;;19.00;2.72;;;;;;;18.51;54.91;101782.47;5090944;28;20576;-76
2022/09/19 03:44:20;;;;;;;17.23;2.75;;;;;;;18.35;55.02;101777.88;5090613;28;20048;-75
2022/09/19 03:46:46;;;;;;;11.57;1.90;;;;;;;18.35;55.79;101780.59;5091534;28;20070;-74
2022/09/19 03:49:13;;;;;;;11.13;2.70;;;;;;;18.41;55.49;101785.03;5091408;28;20071;-76
2022/09/19 03:51:38;;;;;;;15.93;2.80;;;;;;;18.48;55.14;101779.41;5090444;28;20028;-75
2022/09/19 03:54:04;;;;;;;7.50;1.50;;;;;;;18.39;55.40;101779.84;5090925;28;20449;-75
2022/09/19 03:56:30;;;;;;;19.77;2.55;;;;;;;18.38;55.51;101785.50;5090661;28;20036;-76
2022/09/19 03:58:55;;;;;;;21.33;2.88;;;;;;;18.27;55.91;101781.03;5090869;28;20051;-74
2022/09/19 04:01:21;;;;;;;14.63;1.52;;;;;;;18.31;55.58;101787.63;5068643;28;20403;-73
2022/09/19 04:03:48;;;;;;;14.57;2.05;;;;;;;18.27;55.52;101787.31;5090576;28;20493;-74
2022/09/19 04:06:14;;;;;;;19.92;2.05;;;;;;;18.20;55.62;101783.94;5089630;28;20400;-74
2022/09/19 04:08:39;;;;;;;29.67;3.38;;;;;;;18.11;56.05;101785.47;5090044;28;20039;-75
2022/09/19 04:11:05;;;;;;;15.88;2.78;;;;;;;18.18;55.88;101791.53;5090235;28;20039;-74
2022/09/19 04:13:32;;;;;;;19.27;2.33;;;;;;;18.10;56.29;101791.16;5090605;28;20042;-74
2022/09/19 04:15:59;;;;;;;15.60;2.63;;;;;;;18.10;55.97;101789.25;5090195;28;20032;-75
2022/09/19 04:18:24;;;;;;;14.77;1.90;;;;;;;18.09;56.08;101793.06;5090567;28;20036;-75
2022/09/19 04:20:50;;;;;;;25.42;2.75;;;;;;;18.07;56.71;101795.19;5083932;28;20055;-76
2022/09/19 04:23:16;;;;;;;17.88;3.50;;;;;;;18.08;56.39;101794.09;5090630;28;20032;-75
2022/09/19 04:25:43;;;;;;;21.40;3.67;;;;;;;18.08;56.51;101798.75;5091384;28;20398;-75
2022/09/19 04:28:11;;;;;;;21.63;2.42;;;;;;;17.96;56.90;101798.88;5090581;28;20060;-75
2022/09/19 04:30:40;;;;;;;17.52;2.33;;;;;;;17.79;57.37;101798.03;5090394;28;20036;-74
2022/09/19 04:33:07;;;;;;;19.65;2.08;;;;;;;18.00;56.55;101794.56;5088527;28;20059;-76
2022/09/19 04:35:35;;;;;;;26.27;1.85;;;;;;;17.93;56.33;101798.50;5072099;28;20040;-75
2022/09/19 04:38:11;;;;;;;19.50;2.75;;;;;;;17.62;57.20;101807.28;5090459;28;20052;-73
2022/09/19 04:40:41;;;;;;;14.50;2.83;;;;;;;17.73;56.83;101793.59;5091249;28;20274;-75
2022/09/19 04:43:08;;;;;;;17.02;3.33;;;;;;;17.70;57.22;101809.59;5086099;28;20032;-75
2022/09/19 04:45:34;;;;;;;15.40;2.53;;;;;;;17.82;56.66;101804.91;5083745;28;20028;-74
2022/09/19 04:48:00;;;;;;;15.30;2.33;;;;;;;17.75;56.95;101805.06;5087887;28;20109;-74
2022/09/19 04:50:25;;;;;;;15.52;1.90;;;;;;;18.27;54.93;101813.69;5084630;28;20109;-75
2022/09/19 04:52:51;;;;;;;13.45;2.10;;;;;;;18.31;54.91;101809.38;5084650;28;20020;-73
2022/09/19 04:55:17;;;;;;;22.48;2.97;;;;;;;18.32;54.64;101808.31;5083623;28;20044;-75
2022/09/19 04:57:42;;;;;;;20.77;2.80;;;;;;;18.38;54.30;101810.00;5082038;28;20404;-74
2022/09/19 05:00:08;;;;;;;21.55;1.90;;;;;;;18.11;55.43;101818.09;5083044;28;20085;-74
2022/09/19 05:02:34;;;;;;;23.38;3.03;;;;;;;18.02;55.89;101821.50;5085546;28;20039;-74
2022/09/19 05:05:01;;;;;;;10.57;2.05;;;;;;;17.52;57.38;101816.13;5083297;28;20036;-74
2022/09/19 05:07:33;;;;;;;17.73;2.25;;;;;;;17.91;56.54;101825.13;5093909;28;20388;-75
2022/09/19 05:09:59;;;;;;;14.05;2.47;;;;;;;18.20;55.44;101821.22;5093765;28;20035;-75
2022/09/19 05:12:25;;;;;;;13.73;1.88;;;;;;;17.99;56.71;101822.81;5093411;28;20547;-74
2022/09/19 05:14:51;;;;;;;25.00;2.47;;;;;;;17.78;57.04;101826.31;5093803;28;20036;-74
2022/09/19 05:17:17;;;;;;;11.55;2.28;;;;;;;18.24;55.64;101822.34;5075893;28;20036;-75
2022/09/19 05:19:44;;;;;;;17.30;2.25;;;;;;;18.36;55.42;101833.94;5094266;28;20020;-75
2022/09/19 05:22:10;;;;;;;13.40;2.25;;;;;;;18.39;55.55;101830.72;5093276;28;20111;-75
2022/09/19 05:24:37;;;;;;;13.43;2.17;;;;;;;17.79;57.78;101838.03;5093946;28;20123;-75
2022/09/19 05:27:02;;;;;;;12.10;1.52;;;;;;;18.34;55.46;101831.47;5093563;28;20507;-75
2022/09/19 05:29:28;;;;;;;13.90;2.53;;;;;;;18.32;55.96;101830.91;5089046;28;20047;-74
2022/09/19 05:31:55;;;;;;;20.95;2.42;;;;;;;18.28;56.26;101837.91;5088981;28;20487;-72
2022/09/19 05:34:20;;;;;;;11.52;2.13;;;;;;;18.30;56.09;101841.22;5071766;28;20024;-73
2022/09/19 05:36:47;;;;;;;8.57;1.45;;;;;;;18.27;56.41;101844.44;5093221;28;20043;-75
2022/09/19 05:39:13;;;;;;;18.05;1.95;;;;;;;18.10;57.12;101848.28;5093375;28;20535;-73
2022/09/19 05:41:39;;;;;;;25.33;3.65;;;;;;;18.22;57.16;101852.53;5087762;28;20119;-74
2022/09/19 05:44:04;;;;;;;17.02;2.92;;;;;;;18.32;56.64;101852.69;5090856;28;20024;-75
2022/09/19 05:46:29;;;;;;;22.35;2.72;;;;;;;18.55;56.08;101857.09;5093588;28;20023;-74
2022/09/19 05:48:55;;;;;;;17.73;2.20;;;;;;;18.35;56.65;101862.25;5093449;28;20032;-76
2022/09/19 05:51:20;;;;;;;17.75;2.10;;;;;;;18.34;56.77;101866.84;5095803;28;20644;-74
2022/09/19 05:53:52;;;;;;;12.85;2.90;;;;;;;18.27;56.52;101860.78;5091330;28;20048;-74
2022/09/19 05:56:18;;;;;;;15.30;2.03;;;;;;;18.62;55.90;101865.88;5089813;28;20032;-75
2022/09/19 05:58:43;;;;;;;13.52;2.05;;;;;;;18.64;55.64;101863.75;5093070;28;20550;-74
2022/09/19 06:01:11;;;;;;;21.55;2.72;;;;;;;18.81;54.93;101869.94;5090792;28;20091;-74
2022/09/19 06:03:38;;;;;;;13.20;1.55;;;;;;;18.50;56.30;101862.47;5089120;28;20034;-68
2022/09/19 06:06:13;;;;;;;14.02;3.15;;;;;;;18.70;55.84;101870.06;5088259;28;20032;-67
2022/09/19 06:08:40;;;;;;;10.35;1.65;;;;;;;18.24;57.41;101877.59;5092839;28;20503;-67
2022/09/19 06:11:07;;;;;;;25.88;3.63;;;;;;;18.18;58.30;101873.16;5089483;28;20070;-69
2022/09/19 06:16:20;;;;;;;20.77;2.45;;;;;;;18.48;58.84;101878.22;5088180;28;20059;-69
2022/09/19 06:18:46;;;;;;;10.93;1.70;;;;;;;19.00;57.53;101873.16;5065359;28;20056;-68
2022/09/19 06:21:12;;;;;;;16.20;2.30;;;;;;;19.06;57.09;101869.41;5086215;28;20507;-69
2022/09/19 06:23:38;;;;;;;14.80;2.45;;;;;;;19.00;57.23;101876.72;5080461;28;20476;-68
2022/09/19 06:26:04;;;;;;;18.45;1.90;;;;;;;19.61;55.72;101880.06;5086553;28;20414;-69
2022/09/19 06:28:29;;;;;;;20.90;2.78;;;;;;;18.94;57.28;101877.72;5083397;28;20032;-68
2022/09/19 06:30:54;;;;;;;16.58;1.67;;;;;;;19.20;56.33;101885.06;5086569;28;20032;-68
2022/09/19 06:33:20;;;;;;;14.07;2.67;;;;;;;18.88;56.11;101891.53;5084928;28;20040;-69
2022/09/19 06:35:45;;;;;;;11.80;1.80;;;;;;;19.23;55.40;101886.47;5081885;28;20047;-69
2022/09/19 06:38:11;;;;;;;13.88;2.30;;;;;;;19.66;54.71;101894.56;5077273;28;20032;-68
2022/09/19 06:40:38;;;;;;;9.88;1.42;;;;;;;19.48;55.25;101894.13;5081799;28;20096;-68
2022/09/19 06:43:05;;;;;;;8.68;1.60;;;;;;;19.15;55.17;101906.84;5079233;28;20081;-68
2022/09/19 06:45:37;;;;;;;9.00;2.03;;;;;;;19.12;54.06;101910.06;5085211;28;20040;-69
2022/09/19 06:48:04;;;;;;;12.60;1.63;;;;;;;18.45;56.01;101905.13;5086733;28;20122;-69
2022/09/19 06:50:29;;;;;;;18.35;3.75;;;;;;;18.91;53.95;101905.47;5077486;28;20468;-69
2022/09/19 06:52:56;;;;;;;6.78;1.73;;;;;;;18.57;54.61;101906.69;5084962;28;20240;-69
2022/09/19 06:55:24;;;;;;;11.25;2.20;;;;;;;19.03;53.91;101911.59;5084970;28;20036;-68
2022/09/19 06:57:58;;;;;;;12.75;1.80;;;;;;;19.00;53.82;101914.03;5086173;28;20031;-68
2022/09/19 07:00:26;;;;;;;14.02;1.92;;;;;;;18.56;54.48;101910.47;5084970;28;20123;-71
2022/09/19 07:03:00;;;;;;;8.63;1.27;;;;;;;18.77;54.58;101917.00;5079081;28;20127;-70
2022/09/19 07:05:26;;;;;;;10.88;1.65;;;;;;;19.30;53.94;101917.88;5086572;28;20048;-69
2022/09/19 07:07:52;;;;;;;11.15;1.70;;;;;;;18.76;55.33;101921.63;5082833;28;20089;-70
2022/09/19 07:10:22;;;;;;;11.95;1.55;;;;;;;19.19;54.35;101927.06;5084445;28;20044;-69
2022/09/19 07:12:56;;;;;;;13.35;2.55;;;;;;;19.39;54.65;101926.47;5063383;28;20384;-69
2022/09/19 07:15:23;;;;;;;15.55;3.35;;;;;;;19.72;53.89;101926.25;5083202;28;20028;-68
2022/09/19 07:17:49;;;;;;;13.93;1.98;;;;;;;19.45;55.39;101932.78;5068652;28;20454;-69
2022/09/19 07:20:14;;;;;;;9.30;1.88;;;;;;;19.69;54.58;101932.22;5080155;28;20040;-69
2022/09/19 07:22:40;;;;;;;14.30;2.30;;;;;;;19.75;54.20;101933.09;5084749;28;20047;-71
2022/09/19 07:25:08;;;;;;;8.55;1.45;;;;;;;19.61;54.63;101929.97;5082974;28;20067;-69
2022/09/19 07:27:36;;;;;;;6.95;1.30;;;;;;;19.94;53.78;101934.34;5082465;28;20036;-71
2022/09/19 07:30:04;;;;;;;18.25;2.22;;;;;;;19.97;53.33;101931.91;5078039;28;20044;-71
2022/09/19 07:32:30;;;;;;;6.38;1.48;;;;;;;19.85;52.41;101934.00;5082882;28;20040;-71
2022/09/19 07:34:55;;;;;;;12.05;1.58;;;;;;;19.74;51.51;101940.44;5083163;28;20058;-73
2022/09/19 07:37:21;;;;;;;12.95;2.80;;;;;;;19.82;51.43;101947.34;5083524;28;20075;-71
2022/09/19 07:39:46;;;;;;;11.55;1.60;;;;;;;20.17;51.19;101941.34;5087102;28;20569;-69
2022/09/19 07:42:11;;;;;;;12.63;1.95;;;;;;;20.38;51.32;101946.72;5084188;28;20032;-69
2022/09/19 07:44:37;;;;;;;16.23;1.80;;;;;;;20.53;50.54;101954.19;5087933;28;20040;-70
2022/09/19 07:49:46;;;;;;;14.40;3.03;;;;;;;19.84;52.26;101947.91;5082640;28;20051;-66
2022/09/19 07:52:11;;;;;;;10.32;2.13;;;;;;;19.48;53.31;101952.19;5085621;28;20039;-69
2022/09/19 07:54:37;;;;;;;12.77;1.98;;;;;;;20.19;49.97;101956.41;5062243;28;20145;-70
2022/09/19 07:57:02;;;;;;;11.02;1.73;;;;;;;20.20;51.07;101959.97;5081425;28;20491;-69
2022/09/19 07:59:28;;;;;;;10.07;1.75;;;;;;;20.74;49.95;101956.75;5088399;28;20043;-69
2022/09/19 08:01:53;;;;;;;7.03;1.73;;;;;;;20.62;49.04;101963.50;5061131;28;20036;-69
2022/09/19 08:04:19;;;;;;;15.98;2.03;;;;;;;20.17;50.04;101971.38;5076951;28;20048;-70
2022/09/19 08:06:44;;;;;;;6.85;1.42;;;;;;;19.87;50.08;101971.94;5085641;28;20484;-69
2022/09/19 08:09:10;;;;;;;9.55;2.00;;;;;;;20.46;49.90;101970.00;5079860;28;20039;-69
2022/09/19 08:11:36;;;;;;;13.55;2.88;;;;;;;20.35;49.99;101968.25;5080746;28;20048;-69
2022/09/19 08:14:02;;;;;;;6.50;1.48;;;;;;;20.14;50.14;101961.81;5081669;28;20031;-69
2022/09/19 08:16:27;;;;;;;15.13;2.55;;;;;;;20.36;49.20;101978.94;5081784;28;20046;-71
2022/09/19 08:18:53;;;;;;;16.65;2.03;;;;;;;20.31;49.95;101976.16;5081614;28;20040;-70
2022/09/19 08:21:19;;;;;;;11.55;2.60;;;;;;;19.96;50.02;101979.41;5075982;28;20037;-72
2022/09/19 08:23:45;;;;;;;11.90;1.60;;;;;;;20.48;48.92;101982.25;5080009;28;20125;-69
2022/09/19 08:26:10;;;;;;;12.18;2.03;;;;;;;20.39;48.41;101983.03;5083763;28;20032;-68
2022/09/19 08:28:36;;;;;;;8.70;1.73;;;;;;;20.40;47.58;101987.41;5081526;28;20070;-70
2022/09/19 08:31:03;;;;;;;13.52;1.45;;;;;;;19.99;49.29;101989.78;5081533;28;20028;-69
2022/09/19 08:33:30;;;;;;;14.07;3.15;;;;;;;20.44;49.64;101994.00;5082975;28;20482;-69
2022/09/19 08:35:57;;;;;;;17.85;1.67;;;;;;;20.31;50.77;102002.63;5086007;28;20048;-70
2022/09/19 08:38:23;;;;;;;19.35;2.47;;;;;;;20.73;51.08;102000.75;5079821;28;20373;-69
2022/09/19 08:41:11;;;;;;;15.25;2.20;;;;;;;19.53;52.84;102005.97;5081359;28;20098;-72
2022/09/19 08:44:02;;;;;;;13.20;1.95;;;;;;;20.50;50.73;102001.94;5081423;28;20036;-68
2022/09/19 08:46:52;;;;;;;12.90;2.05;;;;;;;19.93;52.06;102009.91;5091580;28;20063;-71
2022/09/19 08:49:50;;;;;;;9.33;2.97;;;;;;;20.27;50.90;102006.97;5084437;28;20085;-70
2022/09/19 08:52:33;;;;;;;14.05;1.55;;;;;;;19.93;52.08;102006.38;5086322;28;20375;-71
2022/09/19 08:55:01;;;;;;;14.95;1.77;;;;;;;20.72;50.96;102007.28;5083704;28;20036;-71
2022/09/19 08:57:32;;;;;;;7.60;1.40;;;;;;;20.36;50.69;102006.25;5081527;28;20373;-73
2022/09/19 09:00:02;;;;;;;;;;;;;;;20.67;49.58;102008.09;5084871;28;20058;-70
2022/09/19 09:02:57;;;;;;;10.50;1.70;;;;;;;20.06;51.15;102004.03;5082233;28;19931;-71
2022/09/19 09:05:55;;;;;;;9.45;1.80;;;;;;;20.27;51.39;102002.31;5088270;28;20040;-71
2022/09/19 09:08:57;;;;;;;14.27;2.10;;;;;;;20.36;51.55;102008.13;5062215;28;20447;-71
2022/09/19 09:11:49;;;;;;;12.48;2.78;;;;;;;20.34;51.66;102002.13;5086389;28;20095;-74
2022/09/19 09:14:26;;;;;;;15.35;2.60;;;;;;;21.25;49.28;101998.81;5083525;28;20577;-71
2022/09/19 09:16:54;;;;;;;13.98;1.70;;;;;;;21.52;48.99;101996.72;5085629;28;20027;-72
2022/09/19 09:19:32;;;;;;;13.05;2.33;;;;;;;21.06;49.95;102007.78;5078560;28;20032;-73
2022/09/19 09:22:11;;;;;;;10.80;2.25;;;;;;;21.67;48.72;102004.16;5079630;28;20116;-72
2022/09/19 09:24:42;;;;;;;11.35;2.00;;;;;;;21.54;48.81;102000.00;5076231;28;20131;-73
2022/09/19 09:27:16;;;;;;;15.73;2.05;;;;;;;21.07;48.14;102015.69;5080344;28;20741;-72
2022/09/19 09:29:47;;;;;;;15.35;2.28;;;;;;;20.64;49.69;102010.50;5086339;28;20028;-72
2022/09/19 09:32:15;;;;;;;12.27;1.50;;;;;;;21.00;48.31;102009.63;5076511;28;20086;-72
2022/09/19 09:34:46;;;;;;;13.45;1.92;;;;;;;20.86;48.88;102012.03;5082917;28;20036;-71
2022/09/19 09:37:19;;;;;;;13.00;2.70;;;;;;;21.24;48.21;102004.56;5067590;28;20495;-71
2022/09/19 09:40:00;;;;;;;7.15;1.38;;;;;;;20.70;48.95;102017.66;5088490;28;20032;-71
2022/09/19 09:42:34;;;;;;;14.15;1.50;;;;;;;20.86;47.86;102011.19;5065815;28;20068;-70
2022/09/19 09:45:16;;;;;;;13.32;1.88;;;;;;;21.60;46.64;102009.88;5081190;28;20038;-71
2022/09/19 09:48:08;;;;;;;7.22;1.67;;;;;;;20.26;47.16;102011.63;5081242;28;20093;-70
2022/09/19 09:51:07;;;;;;;6.90;1.45;;;;;;;21.16;44.76;102007.81;5081602;28;20099;-71
2022/09/19 09:54:02;;;;;;;17.10;2.17;;;;;;;21.28;45.81;102016.63;5079184;28;20075;-71
2022/09/19 09:56:50;;;;;;;10.50;1.58;;;;;;;21.28;46.21;102011.97;5084913;28;20044;-77
2022/09/19 10:05:43;;;;;;;8.35;1.48;;;;;;;20.86;47.24;102011.19;5077544;28;20131;-75
2022/09/19 10:08:21;;;;;;;9.60;1.50;;;;;;;20.77;47.97;102010.88;5076408;28;20037;-75
2022/09/19 10:10:53;;;;;;;7.38;1.48;;;;;;;20.86;47.52;102012.03;5080928;28;20111;-75
2022/09/19 10:13:28;;;;;;;14.70;1.85;;;;;;;21.24;47.15;102008.13;5078046;28;20051;-74
2022/09/19 10:16:02;;;;;;;11.30;2.08;;;;;;;21.73;44.99;102011.28;5078811;28;20044;-76
2022/09/19 10:18:40;;;;;;;7.60;1.08;;;;;;;20.38;46.92;102027.81;5081561;28;20066;-74
2022/09/19 10:21:05;;;;;;;9.73;1.20;;;;;;;20.94;45.60;102016.16;5082569;28;20388;-74
2022/09/19 10:23:32;;;;;;;9.52;1.52;;;;;;;21.10;45.31;102028.00;5068095;28;20035;-73
2022/09/19 10:26:04;;;;;;;23.42;3.50;;;;;;;20.69;46.92;102021.47;5085605;28;20028;-73
2022/09/19 10:28:43;;;;;;;12.20;1.42;;;;;;;21.26;45.55;102007.88;5078493;28;20035;-75
2022/09/19 10:31:34;;;;;;;14.10;1.88;;;;;;;20.95;45.98;102015.09;5083254;28;20540;-75
2022/09/19 10:34:05;;;;;;;6.57;1.33;;;;;;;21.43;44.79;102011.19;5081369;28;20032;-77
2022/09/19 10:36:33;;;;;;;7.35;2.28;;;;;;;21.70;44.56;102011.81;5083392;28;20098;-74
2022/09/19 10:39:07;;;;;;;12.13;1.58;;;;;;;21.93;44.18;102002.31;5086639;28;20032;-75
2022/09/19 10:41:34;;;;;;;11.75;1.70;;;;;;;22.11;43.81;102005.31;5067593;28;20047;-75
2022/09/19 10:44:19;;;;;;;14.05;2.20;;;;;;;22.17;42.81;102000.69;5078995;28;20028;-76
2022/09/19 10:46:49;;;;;;;6.00;1.08;;;;;;;21.90;43.58;102008.31;5079813;28;20085;-75
2022/09/19 10:49:26;;;;;;;9.48;1.25;;;;;;;21.41;42.71;102030.63;5084642;28;20476;-75
2022/09/19 10:51:55;;;;;;;9.68;2.42;;;;;;;21.25;41.43;102020.69;5086712;28;20040;-76
2022/09/19 10:54:53;;;;;;;7.35;0.90;;;;;;;21.08;40.99;102028.28;5086024;28;20118;-74
2022/09/19 10:57:40;;;;;;;11.48;1.90;;;;;;;21.56;40.74;102008.78;5078295;28;20040;-75
2022/09/19 11:00:37;;;;;;;7.93;1.40;;;;;;;21.98;41.47;102018.72;5084919;28;20025;-74
2022/09/19 11:03:23;;;;;;;11.90;1.50;;;;;;;20.89;45.60;102014.22;5000630;28;20034;-75
2022/09/19 11:06:03;;;;;;;10.68;1.45;;;;;;;21.18;44.88;102020.13;5000251;28;20037;-73
2022/09/19 11:08:30;;;;;;;13.43;2.03;;;;;;;20.91;49.11;102031.16;4996967;28;20537;-76
2022/09/19 11:10:58;;;;;;;15.55;2.25;;;;;;;20.12;53.50;102026.75;4991064;28;20109;-73
2022/09/19 11:13:23;;;;;;;7.60;1.05;;;;;;;19.35;52.81;102030.81;5000196;28;20065;-76
2022/09/19 11:16:12;;;;;;;10.93;1.38;;;;;;;19.44;53.63;102042.94;5000657;28;20041;-77
2022/09/19 11:18:57;;;;;;;14.70;1.60;;;;;;;20.22;51.02;102034.22;4946894;28;20531;-75
2022/09/19 11:21:32;;;;;;;13.77;2.25;;;;;;;20.40;49.64;102029.19;4944875;29;20039;-75
2022/09/19 11:24:14;;;;;;;12.82;1.42;;;;;;;20.60;47.85;102026.59;4946411;29;20388;-73
2022/09/19 11:27:18;;;;;;;10.82;2.70;;;;;;;20.81;47.36;102024.84;4943996;29;20087;-75
2022/09/19 11:29:44;;;;;;;14.90;2.33;;;;;;;20.81;47.38;102030.31;4949490;28;20047;-74
2022/09/19 11:32:44;;;;;;;3.78;1.33;;;;;;;20.83;46.17;102041.78;4944142;28;20054;-76
2022/09/19 11:35:23;;;;;;;8.52;2.70;;;;;;;21.40;44.61;102028.16;4939319;29;20046;-76
2022/09/19 11:38:15;;;;;;;13.85;0.93;;;;;;;20.78;44.59;102041.75;4943181;29;20031;-75
2022/09/19 11:41:04;;;;;;;4.57;1.35;;;;;;;19.99;44.12;102035.34;4981159;28;20441;-75
2022/09/19 11:44:16;;;;;;;4.65;0.85;;;;;;;20.67;43.33;102038.13;4983486;28;20569;-74
2022/09/19 11:47:07;;;;;;;4.75;0.90;;;;;;;20.54;43.20;102041.31;4983894;28;20042;-76
2022/09/19 11:49:57;;;;;;;8.05;1.38;;;;;;;21.30;43.07;102044.53;4926899;29;20043;-76
2022/09/19 11:52:50;;;;;;;10.10;1.90;;;;;;;21.77;42.91;102043.31;4927493;29;20143;-76
2022/09/19 11:55:34;;;;;;;11.73;2.10;;;;;;;21.48;42.80;102044.06;4940757;28;20046;-76
2022/09/19 11:58:29;;;;;;;8.85;1.50;;;;;;;21.09;44.11;102051.00;4979184;28;20026;-76